createdAt,value
2019-06-20T00:02:21.995Z,100224.27
2019-06-20T00:04:55.132Z,100227.26
2019-06-20T00:07:28.275Z,100230.59
2019-06-20T00:10:01.194Z,100227.24
2019-06-20T00:12:34.244Z,100225.50
2019-06-20T00:15:07.574Z,100231.69
2019-06-20T00:17:40.627Z,100231.07
2019-06-20T00:20:14.229Z,100233.69
2019-06-20T00:22:47.395Z,100230.13
2019-06-20T00:25:20.518Z,100228.47
2019-06-20T00:27:53.489Z,100233.83
2019-06-20T00:30:26.489Z,100235.44
2019-06-20T00:32:59.483Z,100232.49
2019-06-20T00:35:32.405Z,100235.17
2019-06-20T00:38:05.441Z,100233.15
2019-06-20T00:40:38.412Z,100232.28
2019-06-20T00:43:17.587Z,100234.31
2019-06-20T00:45:46.327Z,100226.52
2019-06-20T00:48:19.455Z,100225.11
2019-06-20T00:50:52.370Z,100223.95
2019-06-20T00:53:26.399Z,100225.73
2019-06-20T00:55:59.391Z,100219.95
2019-06-20T00:58:32.503Z,100223.44
2019-06-20T01:01:05.515Z,100220.03
2019-06-20T01:03:38.759Z,100224.31
2019-06-20T01:06:11.590Z,100225.00
2019-06-20T01:08:44.635Z,100231.16
2019-06-20T01:11:17.490Z,100234.72
2019-06-20T01:13:52.785Z,100235.67
2019-06-20T01:16:25.139Z,100224.56
2019-06-20T01:18:58.179Z,100230.80
2019-06-20T01:21:31.234Z,100227.97
2019-06-20T01:24:04.300Z,100221.11
2019-06-20T01:26:37.325Z,100214.58
2019-06-20T01:29:10.319Z,100217.73
2019-06-20T01:31:43.326Z,100216.78
2019-06-20T01:34:16.304Z,100216.37
2019-06-20T01:36:49.352Z,100221.73
2019-06-20T01:39:22.441Z,100209.05
2019-06-20T01:41:55.491Z,100212.20
2019-06-20T01:44:29.477Z,100207.84
2019-06-20T01:47:03.533Z,100209.08
2019-06-20T01:49:36.451Z,100210.42
2019-06-20T01:52:09.429Z,100212.67
2019-06-20T01:54:42.466Z,100216.22
2019-06-20T01:57:15.435Z,100220.97
2019-06-20T01:59:48.522Z,100218.11
2019-06-20T02:02:21.578Z,100214.42
2019-06-20T02:04:54.595Z,100208.34
2019-06-20T02:07:28.880Z,100207.80
2019-06-20T02:10:01.786Z,100204.64
2019-06-20T02:12:34.973Z,100205.88
2019-06-20T02:15:08.017Z,100209.91
2019-06-20T02:17:41.059Z,100210.37
2019-06-20T02:20:30.488Z,100215.91
2019-06-20T02:23:04.051Z,100213.22
2019-06-20T02:25:37.200Z,100220.64
2019-06-20T02:28:10.162Z,100218.31
2019-06-20T02:30:43.098Z,100222.64
2019-06-20T02:33:16.179Z,100223.22
2019-06-20T02:35:49.299Z,100225.39
2019-06-20T02:38:22.216Z,100233.64
2019-06-20T02:40:55.139Z,100231.66
2019-06-20T02:43:28.310Z,100228.25
2019-06-20T02:46:01.389Z,100224.94
2019-06-20T02:48:34.385Z,100226.98
2019-06-20T02:51:07.345Z,100229.64
2019-06-20T02:53:40.667Z,100225.15
2019-06-20T02:56:14.635Z,100229.88
2019-06-20T02:58:47.553Z,100230.81
2019-06-20T03:01:20.523Z,100222.13
2019-06-20T03:03:53.737Z,100230.25
2019-06-20T03:06:26.688Z,100226.63
2019-06-20T03:08:59.640Z,100224.95
2019-06-20T03:11:32.657Z,100229.67
2019-06-20T03:14:06.094Z,100233.96
2019-06-20T03:16:39.166Z,100230.34
2019-06-20T03:19:12.078Z,100232.45
2019-06-20T03:21:45.171Z,100232.86
2019-06-20T03:24:18.602Z,100235.09
2019-06-20T03:26:51.683Z,100239.28
2019-06-20T03:29:24.658Z,100241.89
2019-06-20T03:31:57.601Z,100240.70
2019-06-20T03:34:30.585Z,100242.16
2019-06-20T03:37:04.364Z,100238.41
2019-06-20T03:39:37.387Z,100234.80
2019-06-20T03:42:10.318Z,100241.84
2019-06-20T03:44:58.433Z,100242.38
2019-06-20T03:47:19.323Z,100239.76
2019-06-20T03:49:52.282Z,100246.16
2019-06-20T03:52:25.285Z,100239.86
2019-06-20T03:54:58.106Z,100231.98
2019-06-20T03:57:30.955Z,100236.58
2019-06-20T04:00:05.354Z,100232.39
2019-06-20T04:02:38.874Z,100232.81
2019-06-20T04:05:12.063Z,100236.27
2019-06-20T04:07:44.935Z,100236.91
2019-06-20T04:10:18.023Z,100233.12
2019-06-20T04:12:52.062Z,100243.52
2019-06-20T04:15:24.868Z,100238.25
2019-06-20T04:17:57.812Z,100242.73
2019-06-20T04:20:30.706Z,100247.55
2019-06-20T04:23:03.850Z,100248.36
2019-06-20T04:25:36.855Z,100245.34
2019-06-20T04:28:09.973Z,100244.37
2019-06-20T04:30:43.044Z,100245.53
2019-06-20T04:33:16.349Z,100250.05
2019-06-20T04:35:49.439Z,100257.13
2019-06-20T04:38:22.462Z,100259.33
2019-06-20T04:40:55.392Z,100254.52
2019-06-20T04:43:28.503Z,100255.63
2019-06-20T04:46:07.357Z,100256.93
2019-06-20T04:48:41.440Z,100258.31
2019-06-20T04:51:14.420Z,100259.78
2019-06-20T04:53:47.678Z,100254.30
2019-06-20T04:56:20.813Z,100253.27
2019-06-20T04:58:53.828Z,100249.16
2019-06-20T05:01:26.844Z,100251.68
2019-06-20T05:03:59.768Z,100250.91
2019-06-20T05:06:32.798Z,100252.92
2019-06-20T05:09:07.521Z,100265.05
2019-06-20T05:11:40.373Z,100263.45
2019-06-20T05:14:13.382Z,100256.75
2019-06-20T05:16:46.597Z,100251.98
2019-06-20T05:19:19.518Z,100253.64
2019-06-20T05:21:53.605Z,100253.16
2019-06-20T05:24:26.813Z,100260.85
2019-06-20T05:26:59.880Z,100258.14
2019-06-20T05:29:33.299Z,100259.09
2019-06-20T05:32:06.295Z,100260.52
2019-06-20T05:34:39.201Z,100263.05
2019-06-20T05:37:12.367Z,100263.84
2019-06-20T05:39:45.378Z,100257.28
2019-06-20T05:42:19.768Z,100253.33
2019-06-20T05:44:53.110Z,100251.30
2019-06-20T05:47:26.295Z,100254.17
2019-06-20T05:49:59.306Z,100247.18
2019-06-20T05:52:32.285Z,100254.57
2019-06-20T05:55:05.568Z,100255.45
2019-06-20T05:57:38.673Z,100252.88
2019-06-20T06:00:13.861Z,100253.09
2019-06-20T06:02:46.768Z,100261.70
2019-06-20T06:05:19.813Z,100261.39
2019-06-20T06:07:52.813Z,100263.27
2019-06-20T06:10:25.903Z,100270.36
2019-06-20T06:12:58.845Z,100267.91
2019-06-20T06:15:31.847Z,100272.48
2019-06-20T06:18:05.062Z,100271.15
2019-06-20T06:20:38.158Z,100273.20
2019-06-20T06:23:11.163Z,100273.95
2019-06-20T06:25:44.776Z,100280.75
2019-06-20T06:28:18.958Z,100280.96
2019-06-20T06:30:51.942Z,100284.17
2019-06-20T06:33:24.938Z,100291.80
2019-06-20T06:35:58.089Z,100281.84
2019-06-20T06:38:31.739Z,100275.81
2019-06-20T06:41:04.732Z,100278.02
2019-06-20T06:43:41.861Z,100285.55
2019-06-20T06:46:12.507Z,100286.78
2019-06-20T06:48:45.620Z,100288.37
2019-06-20T06:51:18.622Z,100283.66
2019-06-20T06:53:51.671Z,100288.59
2019-06-20T06:56:24.778Z,100277.02
2019-06-20T06:58:58.213Z,100282.41
2019-06-20T07:01:31.310Z,100281.99
2019-06-20T07:04:04.367Z,100295.11
2019-06-20T07:06:37.465Z,100296.23
2019-06-20T07:09:10.483Z,100300.51
2019-06-20T07:11:43.609Z,100300.63
2019-06-20T07:14:16.581Z,100302.79
2019-06-20T07:17:00.205Z,100307.82
2019-06-20T07:19:36.576Z,100295.66
2019-06-20T07:22:09.830Z,100287.84
2019-06-20T07:24:42.877Z,100279.55
2019-06-20T07:27:16.977Z,100279.80
2019-06-20T07:29:50.114Z,100277.66
2019-06-20T07:32:23.038Z,100284.75
2019-06-20T07:34:56.086Z,100288.33
2019-06-20T07:37:29.206Z,100287.36
2019-06-20T07:40:02.211Z,100292.80
2019-06-20T07:42:35.430Z,100282.36
2019-06-20T07:45:09.648Z,100275.35
2019-06-20T07:47:42.847Z,100275.88
2019-06-20T07:50:16.325Z,100279.83
2019-06-20T07:53:01.560Z,100274.58
2019-06-20T07:55:24.213Z,100273.47
2019-06-20T07:57:57.251Z,100277.80
2019-06-20T08:00:30.911Z,100277.58
2019-06-20T08:03:05.231Z,100279.08
2019-06-20T08:05:38.311Z,100278.73
2019-06-20T08:08:11.311Z,100278.73
2019-06-20T08:10:44.398Z,100281.32
2019-06-20T08:13:17.306Z,100292.07
2019-06-20T08:15:51.367Z,100290.06
2019-06-20T08:18:25.449Z,100287.73
2019-06-20T08:20:58.552Z,100287.73
2019-06-20T08:23:31.632Z,100289.77
2019-06-20T08:26:04.630Z,100281.86
2019-06-20T08:28:37.710Z,100288.13
2019-06-20T08:31:10.672Z,100288.13
2019-06-20T08:33:43.641Z,100286.09
2019-06-20T08:36:16.658Z,100275.63
2019-06-20T08:38:49.531Z,100275.63
2019-06-20T08:41:22.440Z,100279.05
2019-06-20T08:43:56.753Z,100274.75
2019-06-20T08:46:30.108Z,100270.44
2019-06-20T08:49:03.600Z,100267.91
2019-06-20T08:51:36.789Z,100264.07
2019-06-20T08:54:10.097Z,100269.61
2019-06-20T08:56:43.376Z,100268.78
2019-06-20T08:59:24.515Z,100272.25
2019-06-20T09:01:51.042Z,100273.10
2019-06-20T09:04:24.124Z,100273.10
2019-06-20T09:06:58.600Z,100274.47
2019-06-20T09:09:32.166Z,100274.47
2019-06-20T09:12:05.328Z,100270.72
2019-06-20T09:14:38.383Z,100281.92
2019-06-20T09:17:12.481Z,100270.98
2019-06-20T09:19:45.746Z,100273.05
2019-06-20T09:22:18.725Z,100272.21
2019-06-20T09:24:53.667Z,100268.74
2019-06-20T09:27:27.755Z,100259.34
2019-06-20T09:30:00.858Z,100262.44
2019-06-20T09:32:34.974Z,100268.77
2019-06-20T09:35:08.696Z,100272.34
2019-06-20T09:37:41.780Z,100278.89
2019-06-20T09:40:15.691Z,100280.06
2019-06-20T09:42:48.592Z,100283.42
2019-06-20T09:45:22.064Z,100275.44
2019-06-20T09:47:56.032Z,100275.53
2019-06-20T09:50:29.819Z,100281.48
2019-06-20T09:53:02.879Z,100278.05
2019-06-20T09:55:36.009Z,100277.97
2019-06-20T09:58:08.943Z,100269.34
2019-06-20T10:00:42.172Z,100277.27
2019-06-20T10:03:15.393Z,100278.03
2019-06-20T10:05:49.337Z,100284.27
2019-06-20T10:08:23.211Z,100281.94
2019-06-20T10:10:56.382Z,100271.45
2019-06-20T10:13:32.682Z,100267.08
2019-06-20T10:16:04.507Z,100275.38
2019-06-20T10:18:37.520Z,100279.39
2019-06-20T10:21:10.645Z,100280.62
2019-06-20T10:23:46.039Z,100285.60
2019-06-20T10:26:18.610Z,100291.69
2019-06-20T10:28:53.020Z,100283.27
2019-06-20T10:31:26.315Z,100280.92
2019-06-20T10:33:59.534Z,100278.02
2019-06-20T10:36:32.694Z,100272.19
2019-06-20T10:39:08.619Z,100270.87
2019-06-20T10:41:43.564Z,100274.27
2019-06-20T10:44:17.465Z,100266.63
2019-06-20T10:46:51.417Z,100265.69
2019-06-20T10:49:24.483Z,100268.52
2019-06-20T10:51:57.484Z,100264.66
2019-06-20T10:54:30.729Z,100265.43
2019-06-20T10:57:03.779Z,100262.97
2019-06-20T10:59:36.945Z,100262.11
2019-06-20T11:02:10.155Z,100254.05
2019-06-20T11:04:44.023Z,100253.34
2019-06-20T11:07:17.293Z,100260.20
2019-06-20T11:09:50.443Z,100260.48
2019-06-20T11:12:23.771Z,100253.86
2019-06-20T11:14:56.819Z,100255.59
2019-06-20T11:17:29.880Z,100260.06
2019-06-20T11:20:03.195Z,100256.70
2019-06-20T11:22:37.876Z,100252.94
2019-06-20T11:25:13.448Z,100247.05
2019-06-20T11:27:47.339Z,100244.11
2019-06-20T11:30:21.708Z,100243.81
2019-06-20T11:32:54.725Z,100243.65
2019-06-20T11:35:27.764Z,100239.70
2019-06-20T11:38:00.811Z,100239.52
2019-06-20T11:40:36.444Z,100243.47
2019-06-20T11:43:10.011Z,100233.84
2019-06-20T11:45:43.697Z,100243.78
2019-06-20T11:48:16.694Z,100240.16
2019-06-20T11:50:49.652Z,100226.98
2019-06-20T11:53:22.608Z,100224.16
2019-06-20T11:55:55.588Z,100230.22
2019-06-20T11:58:28.599Z,100225.02
2019-06-20T12:01:03.835Z,100219.98
2019-06-20T12:03:39.052Z,100224.63
2019-06-20T12:06:12.070Z,100200.81
2019-06-20T12:08:45.301Z,100215.38
2019-06-20T12:11:18.907Z,100209.16
2019-06-20T12:13:51.891Z,100209.28
2019-06-20T12:16:25.149Z,100205.38
2019-06-20T12:18:58.059Z,100200.08
2019-06-20T12:21:31.182Z,100198.69
2019-06-20T12:24:04.275Z,100195.38
2019-06-20T12:26:38.928Z,100185.33
2019-06-20T12:29:12.121Z,100192.02
2019-06-20T12:31:45.880Z,100200.30
2019-06-20T12:34:18.905Z,100187.00
2019-06-20T12:36:52.123Z,100184.58
2019-06-20T12:39:25.661Z,100183.98
2019-06-20T12:41:58.919Z,100191.77
2019-06-20T12:44:31.977Z,100183.92
2019-06-20T12:47:05.077Z,100184.15
2019-06-20T12:49:39.056Z,100193.97
2019-06-20T12:52:13.176Z,100190.45
2019-06-20T12:54:47.043Z,100190.15
2019-06-20T12:57:20.081Z,100180.67
2019-06-20T12:59:53.220Z,100187.67
2019-06-20T13:02:26.277Z,100178.86
2019-06-20T13:04:59.378Z,100183.00
2019-06-20T13:07:32.513Z,100185.75
2019-06-20T13:10:06.491Z,100179.27
2019-06-20T13:12:41.412Z,100187.34
2019-06-20T13:15:16.300Z,100186.06
2019-06-20T13:17:49.619Z,100175.28
2019-06-20T13:20:24.190Z,100181.10
2019-06-20T13:22:58.633Z,100178.28
2019-06-20T13:25:31.792Z,100182.70
2019-06-20T13:28:06.622Z,100164.51
2019-06-20T13:30:41.410Z,100172.95
2019-06-20T13:33:14.459Z,100175.73
2019-06-20T13:35:48.751Z,100157.31
2019-06-20T13:38:22.105Z,100161.86
2019-06-20T13:40:55.138Z,100164.44
2019-06-20T13:43:28.254Z,100163.67
2019-06-20T13:46:01.431Z,100168.41
2019-06-20T13:48:34.464Z,100170.62
2019-06-20T13:51:07.493Z,100164.98
2019-06-20T13:53:41.192Z,100160.84
2019-06-20T13:56:15.322Z,100163.67
2019-06-20T13:58:48.817Z,100173.02
2019-06-20T14:01:22.086Z,100163.20
2019-06-20T14:03:55.166Z,100172.58
2019-06-20T14:06:28.121Z,100179.90
2019-06-20T14:09:01.145Z,100179.90
2019-06-20T14:11:35.816Z,100172.30
2019-06-20T14:14:08.910Z,100183.78
2019-06-20T14:16:42.987Z,100180.52
2019-06-20T14:19:16.305Z,100180.52
2019-06-20T14:21:50.672Z,100188.14
2019-06-20T14:24:23.749Z,100181.69
2019-06-20T14:26:56.832Z,100183.26
2019-06-20T14:29:29.792Z,100188.20
2019-06-20T14:32:02.805Z,100192.16
2019-06-20T14:34:36.258Z,100204.09
2019-06-20T14:37:09.357Z,100200.91
2019-06-20T14:39:42.382Z,100207.18
2019-06-20T14:42:15.519Z,100219.42
2019-06-20T14:44:49.776Z,100238.35
2019-06-20T14:47:23.043Z,100236.03
2019-06-20T14:49:56.083Z,100269.81
2019-06-20T14:52:29.084Z,100271.34
2019-06-20T14:55:01.980Z,100285.45
2019-06-20T14:57:35.055Z,100270.36
2019-06-20T15:00:08.309Z,100254.95
2019-06-20T15:02:41.812Z,100267.50
2019-06-20T15:05:17.149Z,100286.37
2019-06-20T15:07:52.119Z,100302.45
2019-06-20T15:10:24.919Z,100306.05
2019-06-20T15:12:57.906Z,100309.75
2019-06-20T15:15:32.002Z,100312.16
2019-06-20T15:18:05.027Z,100308.06
2019-06-20T15:20:38.057Z,100311.25
2019-06-20T15:23:11.232Z,100313.80
2019-06-20T15:25:45.816Z,100306.98
2019-06-20T15:28:19.043Z,100315.00
2019-06-20T15:30:52.737Z,100311.52
2019-06-20T15:33:26.945Z,100309.99
2019-06-20T15:36:01.151Z,100310.88
2019-06-20T15:38:34.258Z,100314.38
2019-06-20T15:41:07.399Z,100301.77
2019-06-20T15:43:40.398Z,100298.97
2019-06-20T15:46:13.448Z,100286.67
2019-06-20T15:48:46.646Z,100287.30
2019-06-20T15:51:19.744Z,100278.23
2019-06-20T15:53:52.946Z,100280.75
2019-06-20T15:56:26.413Z,100271.23
2019-06-20T15:58:59.453Z,100264.33
2019-06-20T16:01:32.480Z,100264.55
2019-06-20T16:04:06.489Z,100262.28
2019-06-20T16:06:39.562Z,100271.11
2019-06-20T16:09:12.646Z,100274.56
2019-06-20T16:11:45.676Z,100283.16
2019-06-20T16:14:18.873Z,100288.05
2019-06-20T16:16:52.067Z,100295.39
2019-06-20T16:19:25.141Z,100293.06
2019-06-20T16:21:58.187Z,100289.48
2019-06-20T16:24:31.230Z,100286.28
2019-06-20T16:27:04.282Z,100279.33
2019-06-20T16:29:37.414Z,100286.27
2019-06-20T16:32:10.350Z,100293.98
2019-06-20T16:34:43.590Z,100298.97
2019-06-20T16:37:16.595Z,100306.30
2019-06-20T16:39:49.920Z,100309.77
2019-06-20T16:42:23.258Z,100314.08
2019-06-20T16:44:56.395Z,100320.15
2019-06-20T16:47:29.358Z,100322.59
2019-06-20T16:50:02.587Z,100325.32
2019-06-20T16:52:36.024Z,100328.41
2019-06-20T16:55:10.468Z,100336.81
2019-06-20T16:57:43.553Z,100335.41
2019-06-20T17:00:17.186Z,100339.12
2019-06-20T17:02:50.348Z,100343.52
2019-06-20T17:05:23.511Z,100346.61
2019-06-20T17:07:56.723Z,100344.73
2019-06-20T17:10:29.906Z,100353.13
2019-06-20T17:13:02.883Z,100347.85
2019-06-20T17:15:35.958Z,100351.27
2019-06-20T17:18:09.182Z,100350.81
2019-06-20T17:20:42.463Z,100359.11
2019-06-20T17:23:15.671Z,100361.54
2019-06-20T17:25:49.799Z,100364.19
2019-06-20T17:28:22.828Z,100362.09
2019-06-20T17:30:55.832Z,100364.62
2019-06-20T17:33:29.109Z,100365.42
2019-06-20T17:36:17.225Z,100368.72
2019-06-20T17:38:37.012Z,100366.25
2019-06-20T17:41:10.542Z,100373.89
2019-06-20T17:43:43.846Z,100377.80
2019-06-20T17:46:17.141Z,100376.26
2019-06-20T17:48:50.187Z,100372.69
2019-06-20T17:51:23.402Z,100369.30
2019-06-20T17:53:56.282Z,100370.70
2019-06-20T17:56:29.416Z,100370.86
2019-06-20T17:59:02.377Z,100371.39
2019-06-20T18:01:36.177Z,100376.98
2019-06-20T18:04:13.667Z,100377.13
2019-06-20T18:06:44.192Z,100380.60
2019-06-20T18:09:17.313Z,100380.27
2019-06-20T18:11:50.402Z,100386.70
2019-06-20T18:14:24.749Z,100384.09
2019-06-20T18:16:58.247Z,100387.28
2019-06-20T18:19:31.571Z,100390.75
2019-06-20T18:22:05.278Z,100388.09
2019-06-20T18:24:38.391Z,100391.12
2019-06-20T18:27:11.583Z,100386.48
2019-06-20T18:29:44.928Z,100387.62
2019-06-20T18:32:18.128Z,100382.50
2019-06-20T18:35:01.608Z,100385.24
2019-06-20T18:37:31.524Z,100392.29
2019-06-20T18:40:00.838Z,100388.92
2019-06-20T18:42:34.005Z,100392.70
2019-06-20T18:45:08.000Z,100392.02
2019-06-20T18:47:41.173Z,100395.41
2019-06-20T18:50:15.019Z,100394.59
2019-06-20T18:52:52.600Z,100401.56
2019-06-20T18:55:24.053Z,100407.65
2019-06-20T18:57:57.242Z,100404.13
2019-06-20T19:00:34.653Z,100405.42
2019-06-20T19:03:06.788Z,100415.45
2019-06-20T19:05:39.905Z,100417.23
2019-06-20T19:08:13.211Z,100422.70
2019-06-20T19:10:47.505Z,100436.77
2019-06-20T19:13:20.760Z,100438.59
2019-06-20T19:15:53.853Z,100437.24
2019-06-20T19:18:27.060Z,100441.88
2019-06-20T19:21:00.258Z,100448.81
2019-06-20T19:23:33.488Z,100457.73
2019-06-20T19:26:06.859Z,100465.23
2019-06-20T19:28:40.245Z,100466.78
2019-06-20T19:31:13.408Z,100457.34
2019-06-20T19:33:46.537Z,100464.70
2019-06-20T19:36:19.701Z,100466.31
2019-06-20T19:38:53.426Z,100476.92
2019-06-20T19:41:27.150Z,100480.58
2019-06-20T19:44:00.385Z,100481.75
2019-06-20T19:46:33.492Z,100490.31
2019-06-20T19:49:07.213Z,100494.53
2019-06-20T19:51:40.571Z,100498.66
2019-06-20T19:54:13.827Z,100505.09
2019-06-20T19:56:46.984Z,100503.84
2019-06-20T19:59:20.385Z,100506.05
2019-06-20T20:01:53.560Z,100504.95
2019-06-20T20:04:26.969Z,100508.33
2019-06-20T20:07:00.168Z,100512.93
2019-06-20T20:09:33.648Z,100509.84
2019-06-20T20:12:06.638Z,100517.66
2019-06-20T20:14:39.726Z,100509.45
2019-06-20T20:17:12.871Z,100510.19
2019-06-20T20:19:46.116Z,100504.97
2019-06-20T20:22:19.424Z,100509.89
2019-06-20T20:24:52.754Z,100506.73
2019-06-20T20:27:25.815Z,100503.33
2019-06-20T20:29:58.944Z,100514.41
2019-06-20T20:32:31.986Z,100509.86
2019-06-20T20:35:05.125Z,100507.04
2019-06-20T20:37:38.331Z,100506.84
2019-06-20T20:40:12.581Z,100510.06
2019-06-20T20:42:46.057Z,100516.63
2019-06-20T20:45:19.490Z,100519.20
2019-06-20T20:47:52.494Z,100521.30
2019-06-20T20:50:25.575Z,100517.12
2019-06-20T20:52:59.191Z,100515.84
2019-06-20T20:55:32.382Z,100517.84
2019-06-20T20:58:05.432Z,100516.25
2019-06-20T21:00:50.615Z,100502.33
2019-06-20T21:03:23.724Z,100504.80
2019-06-20T21:05:56.797Z,100504.27
2019-06-20T21:08:32.739Z,100506.08
2019-06-20T21:11:04.703Z,100495.17
2019-06-20T21:13:37.745Z,100495.17
2019-06-20T21:16:11.976Z,100499.10
2019-06-20T21:18:45.262Z,100504.66
2019-06-20T21:21:18.626Z,100515.02
2019-06-20T21:23:51.782Z,100512.00
2019-06-20T21:26:24.823Z,100522.76
2019-06-20T21:28:58.006Z,100521.87
2019-06-20T21:31:30.943Z,100526.02
2019-06-20T21:34:04.069Z,100524.02
2019-06-20T21:36:37.288Z,100529.09
2019-06-20T21:39:10.760Z,100526.25
2019-06-20T21:41:43.705Z,100533.42
2019-06-20T21:44:16.769Z,100538.08
2019-06-20T21:46:49.896Z,100532.55
2019-06-20T21:49:23.222Z,100533.66
2019-06-20T21:51:56.276Z,100535.92
2019-06-20T21:54:29.397Z,100542.50
2019-06-20T21:57:02.397Z,100537.16
2019-06-20T21:59:35.520Z,100541.82
2019-06-20T22:02:09.585Z,100539.90
2019-06-20T22:04:53.970Z,100551.47
2019-06-20T22:07:17.632Z,100546.16
2019-06-20T22:09:50.565Z,100543.77
2019-06-20T22:12:23.649Z,100543.77
2019-06-20T22:14:56.703Z,100545.52
2019-06-20T22:17:29.725Z,100545.16
2019-06-20T22:20:02.861Z,100547.20
2019-06-20T22:22:36.168Z,100550.69
2019-06-20T22:25:09.777Z,100551.22
2019-06-20T22:27:42.722Z,100543.40
2019-06-20T22:30:16.923Z,100542.13
2019-06-20T22:32:49.914Z,100536.41
2019-06-20T22:35:22.931Z,100542.52
2019-06-20T22:37:55.957Z,100540.34
2019-06-20T22:40:29.039Z,100544.17
2019-06-20T22:43:02.168Z,100548.55
2019-06-20T22:45:35.366Z,100553.59
2019-06-20T22:48:08.759Z,100556.48
2019-06-20T22:50:42.026Z,100563.14
2019-06-20T22:53:16.142Z,100563.66
2019-06-20T22:55:49.262Z,100567.48
2019-06-20T22:58:22.253Z,100563.59
2019-06-20T23:00:55.342Z,100567.13
2019-06-20T23:03:28.462Z,100564.62
2019-06-20T23:06:01.573Z,100568.55
2019-06-20T23:08:34.881Z,100557.08
2019-06-20T23:11:07.893Z,100553.82
2019-06-20T23:13:40.967Z,100561.85
2019-06-20T23:16:13.957Z,100559.11
2019-06-20T23:18:47.013Z,100561.18
2019-06-20T23:21:20.079Z,100555.81
2019-06-20T23:23:53.109Z,100562.05
2019-06-20T23:26:26.124Z,100557.36
2019-06-20T23:29:16.902Z,100566.14
2019-06-20T23:31:50.025Z,100563.72
2019-06-20T23:34:23.330Z,100555.22
2019-06-20T23:37:11.637Z,100548.63
2019-06-20T23:39:31.097Z,100553.67
2019-06-20T23:42:04.088Z,100560.16
2019-06-20T23:44:37.074Z,100559.11
2019-06-20T23:47:09.984Z,100562.37
2019-06-20T23:49:43.086Z,100560.52
2019-06-20T23:52:19.787Z,100555.02
2019-06-20T23:54:52.862Z,100555.27
2019-06-20T23:57:25.892Z,100568.14
2019-06-20T23:59:58.859Z,100568.14
